createdAt,value
2018-10-04T00:00:15.741Z,1019.89
2018-10-04T00:01:15.727Z,1019.91
2018-10-04T00:02:15.727Z,1019.91
2018-10-04T00:03:15.717Z,1019.88
2018-10-04T00:04:15.709Z,1019.89
2018-10-04T00:05:15.704Z,1019.83
2018-10-04T00:06:15.697Z,1019.86
2018-10-04T00:07:15.689Z,1019.85
2018-10-04T00:08:15.685Z,1019.87
2018-10-04T00:09:15.680Z,1019.86
2018-10-04T00:10:15.674Z,1019.89
2018-10-04T00:11:15.667Z,1019.88
2018-10-04T00:12:15.658Z,1019.88
2018-10-04T00:13:15.653Z,1019.85
2018-10-04T00:14:15.649Z,1019.83
2018-10-04T00:15:15.640Z,1019.85
2018-10-04T00:16:15.636Z,1019.85
2018-10-04T00:17:15.626Z,1019.84
2018-10-04T00:18:15.619Z,1019.89
2018-10-04T00:19:15.616Z,1019.86
2018-10-04T00:20:15.612Z,1019.84
2018-10-04T00:21:15.596Z,1019.82
2018-10-04T00:22:15.595Z,1019.87
2018-10-04T00:23:15.591Z,1019.84
2018-10-04T00:24:15.583Z,1019.83
2018-10-04T00:25:15.574Z,1019.85
2018-10-04T00:26:15.568Z,1019.83
2018-10-04T00:27:15.564Z,1019.89
2018-10-04T00:28:15.554Z,1019.90
2018-10-04T00:29:15.550Z,1019.92
2018-10-04T00:30:15.559Z,1019.99
2018-10-04T00:31:15.550Z,1019.97
2018-10-04T00:32:15.531Z,1020.01
2018-10-04T00:33:15.524Z,1020.06
2018-10-04T00:34:15.518Z,1020.07
2018-10-04T00:35:15.514Z,1020.10
2018-10-04T00:36:15.505Z,1020.11
2018-10-04T00:37:15.504Z,1020.13
2018-10-04T00:38:15.491Z,1020.15
2018-10-04T00:39:15.492Z,1020.17
2018-10-04T00:40:15.486Z,1020.10
2018-10-04T00:41:15.476Z,1020.15
2018-10-04T00:42:15.471Z,1020.15
2018-10-04T00:43:15.460Z,1020.14
2018-10-04T00:44:15.455Z,1020.11
2018-10-04T00:45:15.448Z,1020.13
2018-10-04T00:46:15.444Z,1020.12
2018-10-04T00:47:15.443Z,1020.06
2018-10-04T00:48:15.441Z,1020.08
2018-10-04T00:49:15.429Z,1020.04
2018-10-04T00:50:15.418Z,1020.04
2018-10-04T00:51:15.413Z,1020.10
2018-10-04T00:52:15.407Z,1020.08
2018-10-04T00:53:15.402Z,1020.05
2018-10-04T00:54:15.394Z,1020.07
2018-10-04T00:55:15.398Z,1020.08
2018-10-04T00:56:15.381Z,1020.05
2018-10-04T00:57:15.375Z,1020.05
2018-10-04T00:58:15.364Z,1020.07
2018-10-04T00:59:15.362Z,1020.09
2018-10-04T01:00:15.353Z,1020.09
2018-10-04T01:01:15.348Z,1020.10
2018-10-04T01:02:15.343Z,1020.05
2018-10-04T01:03:15.336Z,1020.11
2018-10-04T01:04:15.328Z,1020.09
2018-10-04T01:05:15.410Z,1020.10
2018-10-04T01:06:15.318Z,1020.07
2018-10-04T01:07:15.312Z,1020.05
2018-10-04T01:08:15.306Z,1020.04
2018-10-04T01:09:15.297Z,1020.07
2018-10-04T01:10:15.297Z,1020.11
2018-10-04T01:11:15.286Z,1020.08
2018-10-04T01:12:15.293Z,1020.08
2018-10-04T01:13:15.273Z,1020.04
2018-10-04T01:14:15.265Z,1020.03
2018-10-04T01:15:15.258Z,1020.04
2018-10-04T01:16:15.265Z,1020.03
2018-10-04T01:17:15.249Z,1020.05
2018-10-04T01:18:15.244Z,1020.02
2018-10-04T01:19:15.238Z,1020.02
2018-10-04T01:20:15.235Z,1020.02
2018-10-04T01:21:15.227Z,1020.02
2018-10-04T01:22:15.217Z,1020.04
2018-10-04T01:23:15.212Z,1020.05
2018-10-04T01:24:15.210Z,1020.01
2018-10-04T01:25:15.197Z,1020.07
2018-10-04T01:26:15.192Z,1020.04
2018-10-04T01:27:15.189Z,1020.06
2018-10-04T01:28:15.185Z,1020.04
2018-10-04T01:29:15.168Z,1020.07
2018-10-04T01:30:15.167Z,1020.04
2018-10-04T01:31:15.219Z,1020.06
2018-10-04T01:32:15.159Z,1020.07
2018-10-04T01:33:15.155Z,1020.05
2018-10-04T01:34:15.144Z,1020.04
2018-10-04T01:35:15.138Z,1020.03
2018-10-04T01:36:15.131Z,1020.01
2018-10-04T01:37:15.120Z,1020.03
2018-10-04T01:38:15.121Z,1020.03
2018-10-04T01:39:15.112Z,1020.02
2018-10-04T01:40:15.107Z,1020.01
2018-10-04T01:41:15.097Z,1020.05
2018-10-04T01:42:15.095Z,1020.06
2018-10-04T01:43:15.094Z,1020.06
2018-10-04T01:44:15.085Z,1020.06
2018-10-04T01:45:15.070Z,1020.07
2018-10-04T01:46:15.064Z,1020.10
2018-10-04T01:47:15.064Z,1020.08
2018-10-04T01:48:15.056Z,1020.09
2018-10-04T01:49:15.049Z,1020.13
2018-10-04T01:50:15.069Z,1020.13
2018-10-04T01:51:15.039Z,1020.12
2018-10-04T01:52:15.030Z,1020.11
2018-10-04T01:53:15.023Z,1020.12
2018-10-04T01:54:15.017Z,1020.13
2018-10-04T01:55:15.010Z,1020.11
2018-10-04T01:56:15.003Z,1020.09
2018-10-04T01:57:14.994Z,1020.05
2018-10-04T01:58:14.994Z,1020.07
2018-10-04T01:59:14.986Z,1020.08
2018-10-04T02:00:14.985Z,1020.09
2018-10-04T02:01:14.971Z,1020.03
2018-10-04T02:02:14.964Z,1020.02
2018-10-04T02:03:14.960Z,1020.01
2018-10-04T02:04:14.951Z,1020.01
2018-10-04T02:05:14.945Z,1019.99
2018-10-04T02:06:14.942Z,1019.99
2018-10-04T02:07:14.934Z,1020.01
2018-10-04T02:08:14.930Z,1020.02
2018-10-04T02:09:14.927Z,1020.01
2018-10-04T02:10:14.918Z,1020.00
2018-10-04T02:11:14.909Z,1020.00
2018-10-04T02:12:14.900Z,1019.99
2018-10-04T02:13:14.900Z,1020.01
2018-10-04T02:14:14.891Z,1020.01
2018-10-04T02:15:14.884Z,1020.04
2018-10-04T02:16:14.881Z,1020.03
2018-10-04T02:17:14.874Z,1020.03
2018-10-04T02:18:14.864Z,1020.02
2018-10-04T02:19:14.863Z,1020.00
2018-10-04T02:20:14.853Z,1020.02
2018-10-04T02:21:14.849Z,1020.04
2018-10-04T02:22:14.841Z,1020.07
2018-10-04T02:23:14.833Z,1020.07
2018-10-04T02:24:14.828Z,1020.08
2018-10-04T02:25:14.821Z,1020.06
2018-10-04T02:26:14.816Z,1020.08
2018-10-04T02:27:14.809Z,1020.08
2018-10-04T02:28:14.803Z,1020.07
2018-10-04T02:29:14.796Z,1020.05
2018-10-04T02:30:14.793Z,1020.06
2018-10-04T02:31:14.783Z,1020.05
2018-10-04T02:32:14.781Z,1020.08
2018-10-04T02:33:14.770Z,1020.02
2018-10-04T02:34:14.766Z,1020.03
2018-10-04T02:35:14.761Z,1020.05
2018-10-04T02:36:14.753Z,1020.00
2018-10-04T02:37:14.753Z,1020.01
2018-10-04T02:38:14.749Z,1020.00
2018-10-04T02:39:14.733Z,1020.00
2018-10-04T02:40:14.734Z,1020.05
2018-10-04T02:41:14.722Z,1020.02
2018-10-04T02:42:14.714Z,1020.03
2018-10-04T02:43:14.707Z,1020.05
2018-10-04T02:44:14.706Z,1020.03
2018-10-04T02:45:14.700Z,1020.04
2018-10-04T02:46:14.685Z,1020.00
2018-10-04T02:47:14.685Z,1020.03
2018-10-04T02:48:14.676Z,1020.01
2018-10-04T02:49:14.668Z,1020.03
2018-10-04T02:50:14.668Z,1020.04
2018-10-04T02:51:14.661Z,1020.09
2018-10-04T02:52:14.651Z,1020.08
2018-10-04T02:53:14.645Z,1020.07
2018-10-04T02:54:14.642Z,1020.05
2018-10-04T02:55:14.634Z,1020.04
2018-10-04T02:56:14.625Z,1020.01
2018-10-04T02:57:14.616Z,1020.02
2018-10-04T02:58:14.617Z,1020.10
2018-10-04T02:59:14.610Z,1020.06
2018-10-04T03:00:14.600Z,1020.09
2018-10-04T03:01:14.601Z,1020.09
2018-10-04T03:02:14.590Z,1020.11
2018-10-04T03:03:14.579Z,1020.11
2018-10-04T03:04:14.571Z,1020.12
2018-10-04T03:05:14.567Z,1020.14
2018-10-04T03:06:14.565Z,1020.13
2018-10-04T03:07:14.556Z,1020.14
2018-10-04T03:08:14.550Z,1020.18
2018-10-04T03:09:14.543Z,1020.16
2018-10-04T03:10:14.539Z,1020.17
2018-10-04T03:11:14.529Z,1020.18
2018-10-04T03:12:14.523Z,1020.23
2018-10-04T03:13:14.513Z,1020.21
2018-10-04T03:14:14.512Z,1020.18
2018-10-04T03:15:14.505Z,1020.18
2018-10-04T03:16:14.505Z,1020.19
2018-10-04T03:17:14.494Z,1020.16
2018-10-04T03:18:14.485Z,1020.16
2018-10-04T03:19:14.477Z,1020.17
2018-10-04T03:20:14.487Z,1020.15
2018-10-04T03:21:14.499Z,1020.19
2018-10-04T03:22:14.466Z,1020.17
2018-10-04T03:23:14.468Z,1020.13
2018-10-04T03:24:14.449Z,1020.16
2018-10-04T03:25:14.444Z,1020.15
2018-10-04T03:26:14.440Z,1020.16
2018-10-04T03:27:14.423Z,1020.14
2018-10-04T03:28:14.420Z,1020.11
2018-10-04T03:29:14.411Z,1020.08
2018-10-04T03:30:14.498Z,1020.07
2018-10-04T03:31:14.416Z,1020.08
2018-10-04T03:32:14.397Z,1020.07
2018-10-04T03:33:14.384Z,1020.06
2018-10-04T03:34:14.384Z,1020.04
2018-10-04T03:35:14.374Z,1020.06
2018-10-04T03:36:14.367Z,1020.11
2018-10-04T03:37:14.361Z,1020.12
2018-10-04T03:38:14.354Z,1020.13
2018-10-04T03:39:14.349Z,1020.13
2018-10-04T03:40:14.344Z,1020.17
2018-10-04T03:41:14.337Z,1020.19
2018-10-04T03:42:14.328Z,1020.16
2018-10-04T03:43:14.324Z,1020.15
2018-10-04T03:44:14.380Z,1020.14
2018-10-04T03:45:14.310Z,1020.13
2018-10-04T03:46:14.303Z,1020.11
2018-10-04T03:47:14.298Z,1020.08
2018-10-04T03:48:14.292Z,1020.06
2018-10-04T03:49:14.283Z,1020.06
2018-10-04T03:50:14.278Z,1020.06
2018-10-04T03:51:14.276Z,1020.08
2018-10-04T03:52:14.280Z,1020.06
2018-10-04T03:53:14.257Z,1020.09
2018-10-04T03:54:14.248Z,1020.12
2018-10-04T03:55:14.247Z,1020.04
2018-10-04T03:56:14.244Z,1020.09
2018-10-04T03:57:14.231Z,1020.05
2018-10-04T03:58:14.225Z,1020.04
2018-10-04T03:59:14.219Z,1020.07
2018-10-04T04:00:14.214Z,1020.07
2018-10-04T04:01:14.206Z,1020.05
2018-10-04T04:02:14.199Z,1020.08
2018-10-04T04:03:14.192Z,1020.08
2018-10-04T04:04:14.190Z,1020.10
2018-10-04T04:05:14.179Z,1020.12
2018-10-04T04:06:14.171Z,1020.12
2018-10-04T04:07:14.164Z,1020.11
2018-10-04T04:08:14.157Z,1020.12
2018-10-04T04:09:14.152Z,1020.08
2018-10-04T04:10:14.146Z,1020.10
2018-10-04T04:11:14.140Z,1020.10
2018-10-04T04:12:14.154Z,1020.10
2018-10-04T04:13:14.126Z,1020.12
2018-10-04T04:14:14.118Z,1020.09
2018-10-04T04:15:14.126Z,1020.13
2018-10-04T04:16:14.110Z,1020.11
2018-10-04T04:17:14.100Z,1020.16
2018-10-04T04:18:14.101Z,1020.13
2018-10-04T04:19:14.090Z,1020.17
2018-10-04T04:20:14.084Z,1020.19
2018-10-04T04:21:14.069Z,1020.20
2018-10-04T04:22:14.071Z,1020.19
2018-10-04T04:23:14.055Z,1020.23
2018-10-04T04:24:14.055Z,1020.25
2018-10-04T04:25:14.122Z,1020.23
2018-10-04T04:26:14.044Z,1020.27
2018-10-04T04:27:14.032Z,1020.27
2018-10-04T04:28:14.027Z,1020.31
2018-10-04T04:29:14.017Z,1020.29
2018-10-04T04:30:14.013Z,1020.33
2018-10-04T04:31:14.010Z,1020.31
2018-10-04T04:32:14.002Z,1020.35
2018-10-04T04:33:13.991Z,1020.29
2018-10-04T04:34:13.984Z,1020.35
2018-10-04T04:35:13.991Z,1020.37
2018-10-04T04:36:13.971Z,1020.38
2018-10-04T04:37:13.966Z,1020.38
2018-10-04T04:38:13.961Z,1020.40
2018-10-04T04:39:13.953Z,1020.42
2018-10-04T04:40:13.949Z,1020.43
2018-10-04T04:41:13.942Z,1020.45
2018-10-04T04:42:13.939Z,1020.50
2018-10-04T04:43:13.928Z,1020.51
2018-10-04T04:44:13.918Z,1020.52
2018-10-04T04:45:13.912Z,1020.55
2018-10-04T04:46:13.908Z,1020.54
2018-10-04T04:47:14.012Z,1020.53
2018-10-04T04:48:13.896Z,1020.53
2018-10-04T04:49:13.888Z,1020.57
2018-10-04T04:50:13.878Z,1020.59
2018-10-04T04:51:13.884Z,1020.59
2018-10-04T04:52:13.866Z,1020.59
2018-10-04T04:53:13.862Z,1020.63
2018-10-04T04:54:13.854Z,1020.65
2018-10-04T04:55:13.843Z,1020.64
2018-10-04T04:56:13.841Z,1020.63
2018-10-04T04:57:13.833Z,1020.69
2018-10-04T04:58:13.830Z,1020.68
2018-10-04T04:59:13.819Z,1020.69
2018-10-04T05:00:13.815Z,1020.70
2018-10-04T05:01:13.804Z,1020.69
2018-10-04T05:02:13.804Z,1020.67
2018-10-04T05:03:13.797Z,1020.68
2018-10-04T05:04:13.789Z,1020.65
2018-10-04T05:05:13.782Z,1020.68
2018-10-04T05:06:13.835Z,1020.66
2018-10-04T05:07:13.769Z,1020.68
2018-10-04T05:08:13.761Z,1020.64
2018-10-04T05:09:13.756Z,1020.67
2018-10-04T05:10:13.751Z,1020.66
2018-10-04T05:11:13.741Z,1020.71
2018-10-04T05:12:13.740Z,1020.70
2018-10-04T05:13:13.735Z,1020.69
2018-10-04T05:14:13.721Z,1020.72
2018-10-04T05:15:13.714Z,1020.69
2018-10-04T05:16:13.712Z,1020.72
2018-10-04T05:17:13.703Z,1020.73
2018-10-04T05:18:13.696Z,1020.72
2018-10-04T05:19:13.691Z,1020.69
2018-10-04T05:20:13.686Z,1020.73
2018-10-04T05:21:13.674Z,1020.72
2018-10-04T05:22:13.712Z,1020.72
2018-10-04T05:23:13.666Z,1020.72
2018-10-04T05:24:13.657Z,1020.74
2018-10-04T05:25:13.655Z,1020.78
2018-10-04T05:26:13.652Z,1020.71
2018-10-04T05:27:13.640Z,1020.74
2018-10-04T05:28:13.630Z,1020.73
2018-10-04T05:29:13.624Z,1020.75
2018-10-04T05:30:13.616Z,1020.70
2018-10-04T05:31:13.614Z,1020.75
2018-10-04T05:32:13.607Z,1020.70
2018-10-04T05:33:13.603Z,1020.70
2018-10-04T05:34:13.612Z,1020.70
2018-10-04T05:35:13.597Z,1020.72
2018-10-04T05:36:13.583Z,1020.72
2018-10-04T05:37:13.671Z,1020.72
2018-10-04T05:38:13.575Z,1020.74
2018-10-04T05:39:13.566Z,1020.73
2018-10-04T05:40:13.559Z,1020.73
2018-10-04T05:41:13.619Z,1020.75
2018-10-04T05:42:13.544Z,1020.81
2018-10-04T05:43:13.543Z,1020.76
2018-10-04T05:44:13.641Z,1020.73
2018-10-04T05:45:13.553Z,1020.77
2018-10-04T05:46:13.525Z,1020.79
2018-10-04T05:47:13.523Z,1020.79
2018-10-04T05:48:13.509Z,1020.81
2018-10-04T05:49:13.504Z,1020.80
2018-10-04T05:50:13.501Z,1020.84
2018-10-04T05:51:13.499Z,1020.83
2018-10-04T05:52:13.489Z,1020.86
2018-10-04T05:53:13.544Z,1020.84
2018-10-04T05:54:13.479Z,1020.83
2018-10-04T05:55:13.469Z,1020.85
2018-10-04T05:56:13.462Z,1020.87
2018-10-04T05:57:13.460Z,1020.88
2018-10-04T05:58:13.451Z,1020.90
2018-10-04T05:59:13.498Z,1020.90
2018-10-04T06:00:13.445Z,1020.92
2018-10-04T06:01:13.435Z,1020.91
2018-10-04T06:02:13.431Z,1020.90
2018-10-04T06:03:13.421Z,1020.87
2018-10-04T06:04:13.422Z,1020.87
2018-10-04T06:05:13.462Z,1020.88
2018-10-04T06:06:13.405Z,1020.90
2018-10-04T06:07:13.401Z,1020.86
2018-10-04T06:08:13.392Z,1020.90
2018-10-04T06:09:13.398Z,1020.90
2018-10-04T06:10:13.387Z,1020.86
2018-10-04T06:11:13.389Z,1020.88
2018-10-04T06:12:13.369Z,1020.92
2018-10-04T06:13:13.932Z,1020.91
2018-10-04T06:14:13.357Z,1020.91
2018-10-04T06:15:13.441Z,1020.92
2018-10-04T06:16:13.349Z,1020.95
2018-10-04T06:17:13.355Z,1020.95
2018-10-04T06:18:13.339Z,1020.94
2018-10-04T06:19:13.332Z,1020.97
2018-10-04T06:20:13.321Z,1020.94
2018-10-04T06:21:13.320Z,1020.99
2018-10-04T06:22:13.318Z,1021.00
2018-10-04T06:23:13.310Z,1020.96
2018-10-04T06:24:13.321Z,1020.98
2018-10-04T06:25:13.297Z,1021.00
2018-10-04T06:26:13.300Z,1021.04
2018-10-04T06:27:13.283Z,1021.06
2018-10-04T06:28:13.284Z,1021.08
2018-10-04T06:29:13.272Z,1021.13
2018-10-04T06:30:13.274Z,1021.13
2018-10-04T06:31:13.313Z,1021.14
2018-10-04T06:32:13.259Z,1021.22
2018-10-04T06:33:13.252Z,1021.22
2018-10-04T06:34:13.253Z,1021.18
2018-10-04T06:35:13.342Z,1021.25
2018-10-04T06:36:13.255Z,1021.22
2018-10-04T06:37:13.233Z,1021.23
2018-10-04T06:38:13.248Z,1021.26
2018-10-04T06:39:13.227Z,1021.27
2018-10-04T06:40:13.267Z,1021.24
2018-10-04T06:41:13.285Z,1021.28
2018-10-04T06:42:13.203Z,1021.34
2018-10-04T06:43:13.202Z,1021.37
2018-10-04T06:44:13.204Z,1021.36
2018-10-04T06:45:13.190Z,1021.38
2018-10-04T06:46:13.186Z,1021.31
2018-10-04T06:47:13.183Z,1021.32
2018-10-04T06:48:13.181Z,1021.31
2018-10-04T06:49:13.171Z,1021.35
2018-10-04T06:50:13.226Z,1021.34
2018-10-04T06:51:13.165Z,1021.37
2018-10-04T06:52:13.154Z,1021.41
2018-10-04T06:53:13.146Z,1021.41
2018-10-04T06:54:13.139Z,1021.40
2018-10-04T06:55:13.138Z,1021.39
2018-10-04T06:56:13.134Z,1021.39
2018-10-04T06:57:13.133Z,1021.39
2018-10-04T06:58:13.182Z,1021.40
2018-10-04T06:59:13.120Z,1021.39
2018-10-04T07:00:13.114Z,1021.44
2018-10-04T07:01:13.111Z,1021.41
2018-10-04T07:02:13.103Z,1021.46
2018-10-04T07:03:13.103Z,1021.44
2018-10-04T07:04:13.094Z,1021.46
2018-10-04T07:05:13.088Z,1021.44
2018-10-04T07:06:13.083Z,1021.45
2018-10-04T07:07:13.077Z,1021.47
2018-10-04T07:08:13.076Z,1021.50
2018-10-04T07:09:13.068Z,1021.45
2018-10-04T07:10:13.132Z,1021.50
2018-10-04T07:11:13.058Z,1021.51
2018-10-04T07:12:13.059Z,1021.57
2018-10-04T07:13:13.055Z,1021.56
2018-10-04T07:14:13.046Z,1021.52
2018-10-04T07:15:13.046Z,1021.54
2018-10-04T07:16:13.033Z,1021.50
2018-10-04T07:17:13.034Z,1021.56
2018-10-04T07:18:13.036Z,1021.56
2018-10-04T07:19:13.023Z,1021.54
2018-10-04T07:20:13.069Z,1021.54
2018-10-04T07:21:13.009Z,1021.54
2018-10-04T07:22:13.006Z,1021.57
2018-10-04T07:23:13.002Z,1021.55
2018-10-04T07:24:13.001Z,1021.57
2018-10-04T07:25:12.993Z,1021.58
2018-10-04T07:26:12.991Z,1021.59
2018-10-04T07:27:12.993Z,1021.64
2018-10-04T07:28:12.982Z,1021.66
2018-10-04T07:29:12.979Z,1021.70
2018-10-04T07:30:12.970Z,1021.69
2018-10-04T07:31:12.972Z,1021.69
2018-10-04T07:32:12.974Z,1021.70
2018-10-04T07:33:12.963Z,1021.72
2018-10-04T07:34:12.960Z,1021.73
2018-10-04T07:35:12.954Z,1021.73
2018-10-04T07:36:12.953Z,1021.74
2018-10-04T07:37:12.980Z,1021.79
2018-10-04T07:38:12.936Z,1021.77
2018-10-04T07:39:12.935Z,1021.77
2018-10-04T07:40:12.933Z,1021.80
2018-10-04T07:41:12.927Z,1021.76
2018-10-04T07:42:13.010Z,1021.76
2018-10-04T07:43:12.921Z,1021.74
2018-10-04T07:44:12.917Z,1021.75
2018-10-04T07:45:12.915Z,1021.76
2018-10-04T07:46:12.952Z,1021.78
2018-10-04T07:47:12.900Z,1021.80
2018-10-04T07:48:12.895Z,1021.80
2018-10-04T07:49:12.901Z,1021.78
2018-10-04T07:50:12.995Z,1021.75
2018-10-04T07:51:12.888Z,1021.76
2018-10-04T07:52:12.884Z,1021.75
2018-10-04T07:53:12.876Z,1021.77
2018-10-04T07:54:12.875Z,1021.73
2018-10-04T07:55:12.881Z,1021.75
2018-10-04T07:56:12.872Z,1021.74
2018-10-04T07:57:12.862Z,1021.78
2018-10-04T07:58:12.883Z,1021.73
2018-10-04T07:59:12.854Z,1021.78
2018-10-04T08:00:12.938Z,1021.78
2018-10-04T08:01:12.847Z,1021.77
2018-10-04T08:02:12.877Z,1021.79
2018-10-04T08:03:12.888Z,1021.79
2018-10-04T08:04:12.848Z,1021.79
2018-10-04T08:05:12.843Z,1021.80
2018-10-04T08:06:12.940Z,1021.84
2018-10-04T08:07:12.832Z,1021.79
2018-10-04T08:08:12.824Z,1021.80
2018-10-04T08:09:12.820Z,1021.79
2018-10-04T08:10:12.821Z,1021.81
2018-10-04T08:11:12.814Z,1021.81
2018-10-04T08:12:12.815Z,1021.83
2018-10-04T08:13:12.809Z,1021.83
2018-10-04T08:14:12.806Z,1021.83
2018-10-04T08:15:12.855Z,1021.84
2018-10-04T08:16:12.806Z,1021.83
2018-10-04T08:17:12.818Z,1021.83
2018-10-04T08:18:12.795Z,1021.84
2018-10-04T08:19:12.792Z,1021.80
2018-10-04T08:20:13.732Z,1021.80
2018-10-04T08:21:12.851Z,1021.83
2018-10-04T08:22:12.779Z,1021.82
2018-10-04T08:23:12.777Z,1021.82
2018-10-04T08:24:12.775Z,1021.80
2018-10-04T08:25:12.773Z,1021.85
2018-10-04T08:26:12.775Z,1021.86
2018-10-04T08:27:12.772Z,1021.86
2018-10-04T08:28:12.763Z,1021.86
2018-10-04T08:29:12.760Z,1021.84
2018-10-04T08:30:12.755Z,1021.88
2018-10-04T08:31:12.753Z,1021.90
2018-10-04T08:32:12.754Z,1021.87
2018-10-04T08:33:12.746Z,1021.89
2018-10-04T08:34:12.744Z,1021.87
2018-10-04T08:35:12.962Z,1021.88
2018-10-04T08:36:12.741Z,1021.86
2018-10-04T08:37:12.734Z,1021.90
2018-10-04T08:38:12.734Z,1021.87
2018-10-04T08:39:12.727Z,1021.88
2018-10-04T08:40:12.727Z,1021.87
2018-10-04T08:41:12.725Z,1021.86
2018-10-04T08:42:12.845Z,1021.88
2018-10-04T08:43:12.718Z,1021.86
2018-10-04T08:44:12.715Z,1021.84
2018-10-04T08:45:12.720Z,1021.87
2018-10-04T08:46:12.710Z,1021.89
2018-10-04T08:47:12.717Z,1021.92
2018-10-04T08:48:12.770Z,1021.94
2018-10-04T08:49:12.703Z,1021.94
2018-10-04T08:50:12.699Z,1021.97
2018-10-04T08:51:12.695Z,1021.97
2018-10-04T08:52:12.713Z,1021.97
2018-10-04T08:53:12.691Z,1021.96
2018-10-04T08:54:12.741Z,1021.91
2018-10-04T08:55:12.692Z,1021.95
2018-10-04T08:56:12.690Z,1021.88
2018-10-04T08:57:12.682Z,1021.90
2018-10-04T08:58:12.683Z,1021.88
2018-10-04T08:59:12.679Z,1021.92
2018-10-04T09:00:12.671Z,1021.88
2018-10-04T09:01:12.678Z,1021.87
2018-10-04T09:02:12.666Z,1021.88
2018-10-04T09:03:12.668Z,1021.91
2018-10-04T09:04:12.671Z,1021.88
2018-10-04T09:05:12.671Z,1021.90
2018-10-04T09:06:12.657Z,1021.88
2018-10-04T09:07:12.673Z,1021.87
2018-10-04T09:08:12.656Z,1021.87
2018-10-04T09:09:12.657Z,1021.87
2018-10-04T09:10:12.653Z,1021.83
2018-10-04T09:11:12.653Z,1021.89
2018-10-04T09:12:12.700Z,1021.86
2018-10-04T09:13:12.654Z,1021.87
2018-10-04T09:14:12.637Z,1021.82
2018-10-04T09:15:12.648Z,1021.82
2018-10-04T09:16:12.635Z,1021.86
2018-10-04T09:17:12.638Z,1021.85
2018-10-04T09:18:12.630Z,1021.86
2018-10-04T09:19:12.630Z,1021.90
2018-10-04T09:20:12.629Z,1021.89
2018-10-04T09:21:12.691Z,1021.87
2018-10-04T09:22:12.620Z,1021.78
2018-10-04T09:23:12.615Z,1021.79
2018-10-04T09:24:12.616Z,1021.81
2018-10-04T09:25:13.172Z,1021.78
2018-10-04T09:26:13.302Z,1021.80
2018-10-04T09:27:12.605Z,1021.79
2018-10-04T09:28:12.622Z,1021.78
2018-10-04T09:29:12.602Z,1021.78
2018-10-04T09:30:12.602Z,1021.80
2018-10-04T09:31:12.602Z,1021.85
2018-10-04T09:32:13.313Z,1021.83
2018-10-04T09:33:12.595Z,1021.83
2018-10-04T09:34:12.604Z,1021.83
2018-10-04T09:35:12.595Z,1021.82
2018-10-04T09:36:12.589Z,1021.87
2018-10-04T09:37:12.600Z,1021.85
2018-10-04T09:38:12.583Z,1021.82
2018-10-04T09:39:12.582Z,1021.83
2018-10-04T09:40:12.581Z,1021.82
2018-10-04T09:41:12.608Z,1021.82
2018-10-04T09:42:12.575Z,1021.82
2018-10-04T09:43:12.574Z,1021.78
2018-10-04T09:44:12.568Z,1021.80
2018-10-04T09:45:12.599Z,1021.85
2018-10-04T09:46:12.576Z,1021.84
2018-10-04T09:47:12.561Z,1021.82
2018-10-04T09:48:12.560Z,1021.82
2018-10-04T09:49:12.564Z,1021.85
2018-10-04T09:50:12.560Z,1021.86
2018-10-04T09:51:12.556Z,1021.87
2018-10-04T09:52:12.557Z,1021.84
2018-10-04T09:53:12.550Z,1021.84
2018-10-04T09:54:12.599Z,1021.88
2018-10-04T09:55:12.563Z,1021.90
2018-10-04T09:56:12.549Z,1021.90
2018-10-04T09:57:12.542Z,1021.89
2018-10-04T09:58:12.547Z,1021.88
2018-10-04T09:59:12.536Z,1021.85
2018-10-04T10:00:12.535Z,1021.92
2018-10-04T10:01:12.539Z,1021.88
2018-10-04T10:02:12.536Z,1021.91
2018-10-04T10:03:12.533Z,1021.94
2018-10-04T10:04:12.535Z,1021.93
2018-10-04T10:05:12.528Z,1021.91
2018-10-04T10:06:12.528Z,1021.92
2018-10-04T10:07:12.523Z,1021.94
2018-10-04T10:08:12.523Z,1021.90
2018-10-04T10:09:12.517Z,1021.93
2018-10-04T10:10:12.516Z,1021.98
2018-10-04T10:11:12.514Z,1021.98
2018-10-04T10:12:12.513Z,1021.96
2018-10-04T10:13:12.509Z,1021.95
2018-10-04T10:14:12.505Z,1021.96
2018-10-04T10:15:13.381Z,1021.97
2018-10-04T10:16:12.504Z,1021.94
2018-10-04T10:17:12.499Z,1021.92
2018-10-04T10:18:12.503Z,1021.97
2018-10-04T10:19:12.496Z,1021.96
2018-10-04T10:20:12.571Z,1021.94
2018-10-04T10:21:12.489Z,1021.89
2018-10-04T10:22:12.485Z,1021.92
2018-10-04T10:23:12.486Z,1021.89
2018-10-04T10:24:12.486Z,1021.91
2018-10-04T10:25:12.482Z,1021.90
2018-10-04T10:26:12.513Z,1021.89
2018-10-04T10:27:12.489Z,1021.86
2018-10-04T10:28:12.475Z,1021.89
2018-10-04T10:29:12.476Z,1021.87
2018-10-04T10:30:12.471Z,1021.89
2018-10-04T10:31:12.469Z,1021.90
2018-10-04T10:32:12.467Z,1021.89
2018-10-04T10:33:12.458Z,1021.87
2018-10-04T10:34:12.472Z,1021.84
2018-10-04T10:35:12.459Z,1021.85
2018-10-04T10:36:12.458Z,1021.84
2018-10-04T10:37:12.456Z,1021.89
2018-10-04T10:38:12.450Z,1021.87
2018-10-04T10:39:12.451Z,1021.87
2018-10-04T10:40:12.524Z,1021.93
2018-10-04T10:41:12.445Z,1021.91
2018-10-04T10:42:12.453Z,1021.90
2018-10-04T10:43:12.458Z,1021.88
2018-10-04T10:44:12.448Z,1021.88
2018-10-04T10:45:12.435Z,1021.89
2018-10-04T10:46:12.434Z,1021.84
2018-10-04T10:47:12.436Z,1021.83
2018-10-04T10:48:12.431Z,1021.80
2018-10-04T10:49:12.430Z,1021.84
2018-10-04T10:50:12.435Z,1021.82
2018-10-04T10:51:12.433Z,1021.85
2018-10-04T10:52:12.427Z,1021.82
2018-10-04T10:53:13.290Z,1021.82
2018-10-04T10:54:12.425Z,1021.83
2018-10-04T10:55:12.425Z,1021.83
2018-10-04T10:56:12.419Z,1021.82
2018-10-04T10:57:12.417Z,1021.77
2018-10-04T10:58:12.419Z,1021.82
2018-10-04T10:59:12.412Z,1021.76
2018-10-04T11:00:12.417Z,1021.79
2018-10-04T11:01:12.472Z,1021.79
2018-10-04T11:02:12.405Z,1021.77
2018-10-04T11:03:12.404Z,1021.76
2018-10-04T11:04:12.404Z,1021.79
2018-10-04T11:05:12.401Z,1021.76
2018-10-04T11:06:12.397Z,1021.79
2018-10-04T11:07:12.397Z,1021.78
2018-10-04T11:08:12.402Z,1021.80
2018-10-04T11:09:12.391Z,1021.79
2018-10-04T11:10:12.387Z,1021.80
2018-10-04T11:11:12.433Z,1021.74
2018-10-04T11:12:12.389Z,1021.83
2018-10-04T11:13:12.382Z,1021.82
2018-10-04T11:14:12.377Z,1021.77
2018-10-04T11:15:12.385Z,1021.83
2018-10-04T11:16:12.387Z,1021.83
2018-10-04T11:17:12.453Z,1021.85
2018-10-04T11:18:12.382Z,1021.83
2018-10-04T11:19:12.372Z,1021.81
2018-10-04T11:20:12.369Z,1021.85
2018-10-04T11:21:12.367Z,1021.83
2018-10-04T11:22:12.363Z,1021.82
2018-10-04T11:23:12.418Z,1021.78
2018-10-04T11:24:12.368Z,1021.78
2018-10-04T11:25:12.359Z,1021.76
2018-10-04T11:26:12.352Z,1021.70
2018-10-04T11:27:12.355Z,1021.70
2018-10-04T11:28:12.351Z,1021.69
2018-10-04T11:29:12.351Z,1021.65
2018-10-04T11:30:12.347Z,1021.62
2018-10-04T11:31:12.346Z,1021.64
2018-10-04T11:32:12.339Z,1021.60
2018-10-04T11:33:12.413Z,1021.61
2018-10-04T11:34:12.351Z,1021.62
2018-10-04T11:35:12.334Z,1021.62
2018-10-04T11:36:12.388Z,1021.65
2018-10-04T11:37:12.333Z,1021.63
2018-10-04T11:38:12.333Z,1021.65
2018-10-04T11:39:12.340Z,1021.63
2018-10-04T11:40:12.336Z,1021.65
2018-10-04T11:41:12.327Z,1021.62
2018-10-04T11:42:12.325Z,1021.65
2018-10-04T11:43:12.323Z,1021.63
2018-10-04T11:44:12.316Z,1021.61
2018-10-04T11:45:12.321Z,1021.61
2018-10-04T11:46:12.319Z,1021.63
2018-10-04T11:47:12.315Z,1021.63
2018-10-04T11:48:12.309Z,1021.62
2018-10-04T11:49:12.309Z,1021.58
2018-10-04T11:50:12.307Z,1021.59
2018-10-04T11:51:12.304Z,1021.60
2018-10-04T11:52:12.312Z,1021.63
2018-10-04T11:53:12.313Z,1021.64
2018-10-04T11:54:12.302Z,1021.60
2018-10-04T11:55:12.303Z,1021.62
2018-10-04T11:56:12.295Z,1021.61
2018-10-04T11:57:12.296Z,1021.62
2018-10-04T11:58:12.299Z,1021.60
2018-10-04T11:59:12.298Z,1021.57
2018-10-04T12:00:12.291Z,1021.55
2018-10-04T12:01:12.363Z,1021.50
2018-10-04T12:02:12.295Z,1021.50
2018-10-04T12:03:12.289Z,1021.47
2018-10-04T12:04:12.286Z,1021.49
2018-10-04T12:05:12.284Z,1021.54